< < Back
Terminal Aerodrome Forecast


Current Version              Previous Versions:   1  2  3  4  5  6  7  8  9  

Terminal Aerodrome Forecast

015
FTUS44 KBMX 261500 AAB
TAFBHM
TAF AMD
KBHM 261529Z 2615/2712 32012G18KT P6SM OVC015
     FM262100 28008KT P6SM SCT250
     FM270900 22002KT P6SM BKN040=

Latest METAR

883
SAUS70 KWBC 271000 RRB
MTRBHM
METAR KBHM 270953Z 00000KT 10SM CLR 01/M01 A2993 RMK AO2 SLP137
T00111011


USA.gov is the U.S. government's official web portal to all federal, state and local government web resources and services.